Carbondale, IL

7:05 PM CDT on May 24, 2015 (GMT -0500)
Sparta Community-Hunter | | Change Station
CLOSE
Current Station
Airport
Location: Sparta,
Elevation: 538 ft
Nearby Weather Stations
Active Advisory: Tornado Watch

Elev 538 ft 38.15 °N, 89.70 °W | Updated 10 minutes ago

Partly Cloudy
Partly Cloudy
79 °F
Feels Like 79 °F
N
9
Wind Variable Wind from SSE
Gusts 21 mph

Today
High -- | Low -- °F
--% Chance of Precip.
Yesterday
High -- | Low -- °F
Precip. -- in
5:40 AM 8:07 PM
Waxing Crescent, 43% visible
Pressure 29.94 in
Visibility 10.0 miles
Clouds Scattered Clouds 5000 ft
Scattered Clouds 6500 ft
Scattered Clouds 10000 ft
Dew Point 65 °F
Humidity 60%
Rainfall 0.00 in
Snow Depth Not available.
UV 1 out of 12
Pollen 8.10 out of 12
Air Quality Not available.
Flu Activity Sporadic
METAR KSAR 242355Z AUTO 15008G18KT 10SM SCT050 SCT065 SCT100 26/18 A2994 RMK AO2 T02630181 10283 20261

More Conditions Fewer Conditions

Pressure 29.94 in
Visibility 10.0 miles
Clouds Scattered Clouds 5000 ft
Scattered Clouds 6500 ft
Scattered Clouds 10000 ft
Dew Point 65 °F
Humidity 60%
Rainfall 0.00 in
Snow Depth Not available.
UV 1 out of 12
Pollen 8.10 out of 12
Air Quality Not available.
Flu Activity Sporadic
METAR KSAR 242355Z AUTO 15008G18KT 10SM SCT050 SCT065 SCT100 26/18 A2994 RMK AO2 T02630181 10283 20261

More Conditions Fewer Conditions

10-Day Weather Forecast

Almanac

Astronomy

May. 24, 2015 Rise Set
Actual Time
Civil Twilight
Nautical Twilight
Astronomical Twilight
Moon
Length of Visible Light
Length of Day
Tomorrow will be .
, % of the Moon is Illuminated

Today's Extremes

State Highs State Lows

Community

WunderPhotos

Upload Photos

1,823,900 photos uploaded!

WunderBlogs® & News

Nearby

Air Quality

  Air Quality AQ Index Pollutant
Not available.

Snow Depth

Station Depth Elevation

Earthquake Activity

City Distance Mag. Time & Date
Minimum magnitude displayed is 2.5.

Coastal Water Temperatures

Place Temperature

Stations

Nearby Weather Stations

Station Location Temp. Windchill Dew Point Humidity Wind Precip. Elev Updated Type
                   
Tornado Watch
Statement as of 7:03 PM CDT on May 24, 2015

Tornado Watch 205 remains in effect until 1000 PM CDT for the
following locations

IL
. Illinois counties included are

Adams Alexander Bond
Brown Calhoun Clinton
Fayette Greene Jackson
Jersey Macoupin Madison
Marion Monroe Montgomery
Perry Pike Pulaski
Randolph St. Clair Union
Washington